createdAt,value
2023-01-15T00:03:20.342Z,99881.28
2023-01-15T00:08:24.767Z,99900.56
2023-01-15T00:13:29.025Z,99881.28
2023-01-15T00:18:32.505Z,99877.66
2023-01-15T00:23:55.152Z,99873.19
2023-01-15T00:28:58.234Z,99866.16
2023-01-15T00:34:01.538Z,99875.56
2023-01-15T00:39:06.421Z,99866.94
2023-01-15T00:44:09.644Z,99876.47
2023-01-15T00:49:12.734Z,99866.88
2023-01-15T00:54:17.089Z,99871.16
2023-01-15T00:59:20.278Z,99886.72
2023-01-15T01:04:23.387Z,99882.25
2023-01-15T01:09:27.824Z,99856.81
2023-01-15T01:14:30.953Z,99886.56
2023-01-15T01:19:34.662Z,99877.63
2023-01-15T01:24:39.107Z,99880.13
2023-01-15T01:29:43.286Z,99866.63
2023-01-15T01:34:46.511Z,99879.88
2023-01-15T01:39:51.659Z,99907.78
2023-01-15T01:45:05.320Z,99889.22
2023-01-15T01:50:14.644Z,99897.09
2023-01-15T01:55:23.310Z,99896.88
2023-01-15T02:00:27.951Z,99890.00
2023-01-15T02:05:34.429Z,99890.69
2023-01-15T02:10:38.889Z,99883.44
2023-01-15T02:15:47.247Z,99872.19
2023-01-15T02:20:55.567Z,99873.66
2023-01-15T02:26:17.519Z,99892.00
2023-01-15T02:31:28.642Z,99885.91
2023-01-15T02:36:35.541Z,99882.09
2023-01-15T02:41:45.354Z,99883.84
2023-01-15T02:46:51.340Z,99899.50
2023-01-15T02:51:59.648Z,99894.28
2023-01-15T02:57:04.732Z,99874.31
2023-01-15T03:02:14.417Z,99856.59
2023-01-15T03:07:23.099Z,99857.97
2023-01-15T03:12:31.666Z,99859.41
2023-01-15T03:17:42.562Z,99860.34
2023-01-15T03:22:51.551Z,99864.13
2023-01-15T03:27:59.613Z,99872.59
2023-01-15T03:33:05.609Z,99853.16
2023-01-15T03:38:09.847Z,99861.88
2023-01-15T03:43:34.406Z,99851.84
2023-01-15T03:48:45.355Z,99864.06
2023-01-15T03:53:51.953Z,99856.94
2023-01-15T03:59:01.882Z,99855.88
2023-01-15T04:04:23.893Z,99849.47
2023-01-15T04:09:27.449Z,99853.91
2023-01-15T04:14:34.842Z,99849.38
2023-01-15T04:19:45.728Z,99848.28
2023-01-15T04:24:49.612Z,99841.03
2023-01-15T04:29:52.620Z,99864.38
2023-01-15T04:34:57.214Z,99866.88
2023-01-15T04:40:00.800Z,99856.56
2023-01-15T04:45:03.998Z,99862.50
2023-01-15T04:50:09.950Z,99861.44
2023-01-15T04:55:13.006Z,99873.63
2023-01-15T05:00:16.889Z,99870.06
2023-01-15T05:05:21.439Z,99870.97
2023-01-15T05:10:24.583Z,99858.75
2023-01-15T05:15:27.897Z,99856.22
2023-01-15T05:20:32.301Z,99842.03
2023-01-15T05:25:39.600Z,99853.41
2023-01-15T05:30:42.751Z,99834.91
2023-01-15T05:35:47.578Z,99839.06
2023-01-15T05:40:50.638Z,99827.44
2023-01-15T05:45:53.837Z,99822.31
2023-01-15T05:50:58.469Z,99833.41
2023-01-15T05:56:02.778Z,99855.59
2023-01-15T06:01:08.777Z,99844.34
2023-01-15T06:06:19.375Z,99846.78
2023-01-15T06:11:22.487Z,99858.13
2023-01-15T06:16:25.549Z,99869.25
2023-01-15T06:21:30.535Z,99869.34
2023-01-15T06:26:33.618Z,99870.28
2023-01-15T06:31:36.857Z,99888.44
2023-01-15T06:36:41.380Z,99881.56
2023-01-15T06:42:02.047Z,99881.31
2023-01-15T06:47:24.116Z,99876.56
2023-01-15T06:52:30.635Z,99892.66
2023-01-15T06:57:33.741Z,99864.66
2023-01-15T07:02:36.884Z,99884.41
2023-01-15T07:07:41.484Z,99880.63
2023-01-15T07:12:46.864Z,99888.09
2023-01-15T07:17:49.981Z,99901.03
2023-01-15T07:22:54.613Z,99893.16
2023-01-15T07:28:25.349Z,99863.31
2023-01-15T07:39:17.151Z,99880.44
2023-01-15T07:44:37.791Z,99882.16
2023-01-15T07:49:48.712Z,99881.06
2023-01-15T07:54:53.274Z,99882.69
2023-01-15T07:59:56.614Z,99891.25
2023-01-15T08:04:59.738Z,99900.75
2023-01-15T08:10:04.589Z,99896.44
2023-01-15T08:15:17.091Z,99898.91
2023-01-15T08:20:22.810Z,99912.75
2023-01-15T08:25:28.541Z,99902.25
2023-01-15T08:30:31.756Z,99906.31
2023-01-15T08:35:35.707Z,99914.13
2023-01-15T08:40:59.005Z,99896.09
2023-01-15T08:46:04.632Z,99901.13
2023-01-15T08:51:09.390Z,99900.28
2023-01-15T08:56:15.377Z,99898.03
2023-01-15T09:01:18.648Z,99893.09
2023-01-15T09:06:22.207Z,99890.56
2023-01-15T09:11:26.646Z,99931.63
2023-01-15T09:16:32.298Z,99878.56
2023-01-15T09:21:36.922Z,99891.50
2023-01-15T09:26:41.857Z,99871.81
2023-01-15T09:31:44.929Z,99870.31
2023-01-15T09:36:51.274Z,99894.03
2023-01-15T09:42:09.223Z,99897.28
2023-01-15T09:47:17.122Z,99910.53
2023-01-15T09:52:28.010Z,99914.19
2023-01-15T09:57:36.327Z,99910.22
2023-01-15T10:02:45.092Z,99914.09
2023-01-15T10:07:56.847Z,99912.13
2023-01-15T10:13:51.049Z,99907.44
2023-01-15T10:18:59.315Z,99911.28
2023-01-15T10:24:06.771Z,99921.78
2023-01-15T10:29:19.298Z,99915.00
2023-01-15T10:34:54.916Z,99932.19
2023-01-15T10:40:21.368Z,99918.56
2023-01-15T10:45:27.965Z,99901.97
2023-01-15T10:50:31.247Z,99919.25
2023-01-15T10:55:40.011Z,99911.06
2023-01-15T11:00:51.344Z,99939.13
2023-01-15T11:05:54.418Z,99923.53
2023-01-15T11:10:58.751Z,99918.66
2023-01-15T11:16:21.359Z,99925.63
2023-01-15T11:21:26.001Z,99894.91
2023-01-15T11:26:31.868Z,99929.81
2023-01-15T11:31:40.310Z,99904.44
2023-01-15T11:49:28.260Z,99928.34
2023-01-15T11:54:34.096Z,99899.28
2023-01-15T11:59:38.163Z,99908.44
2023-01-15T12:04:51.475Z,99933.84
2023-01-15T12:10:10.775Z,99918.09
2023-01-15T12:15:30.588Z,99906.75
2023-01-15T12:20:49.680Z,99893.66
2023-01-15T12:25:59.835Z,99910.97
2023-01-15T12:31:12.052Z,99914.72
2023-01-15T12:36:21.331Z,99913.31
2023-01-15T12:41:49.967Z,99915.91
2023-01-15T12:46:54.051Z,99924.72
2023-01-15T12:52:05.539Z,99930.63
2023-01-15T12:57:17.139Z,99914.91
2023-01-15T13:02:26.868Z,99913.34
2023-01-15T13:07:36.936Z,99909.66
2023-01-15T13:12:40.255Z,99913.34
2023-01-15T13:17:54.915Z,99913.91
2023-01-15T13:29:48.125Z,99931.31
2023-01-15T13:34:57.285Z,99945.72
2023-01-15T13:40:31.312Z,99959.53
2023-01-15T13:45:38.226Z,99947.56
2023-01-15T13:57:27.609Z,99959.22
2023-01-15T14:02:33.124Z,99958.63
2023-01-15T14:07:38.513Z,99971.59
2023-01-15T14:12:52.360Z,99952.88
2023-01-15T14:18:22.277Z,99943.31
2023-01-15T14:23:53.087Z,99968.78
2023-01-15T14:29:06.270Z,99964.56
2023-01-15T14:34:24.148Z,99978.22
2023-01-15T14:39:32.223Z,99967.03
2023-01-15T14:44:37.411Z,99987.56
2023-01-15T14:49:49.744Z,99990.72
2023-01-15T14:54:57.115Z,99982.34
2023-01-15T15:00:05.683Z,99999.22
2023-01-15T15:05:17.157Z,100004.75
2023-01-15T15:10:26.613Z,99987.44
2023-01-15T15:15:42.739Z,99976.84
2023-01-15T15:20:59.909Z,100001.81
2023-01-15T15:26:05.359Z,99977.91
2023-01-15T15:31:12.168Z,99987.91
2023-01-15T15:36:15.524Z,99970.78
2023-01-15T15:41:39.618Z,99984.06
2023-01-15T15:47:08.072Z,99971.97
2023-01-15T15:52:24.165Z,99982.91
2023-01-15T15:57:30.157Z,99996.09
2023-01-15T16:02:41.003Z,100002.97
2023-01-15T16:07:44.604Z,99995.22
2023-01-15T16:12:51.403Z,100008.06
2023-01-15T16:17:57.892Z,100010.56
2023-01-15T16:23:03.351Z,100012.91
2023-01-15T16:28:07.649Z,99996.94
2023-01-15T16:33:20.424Z,99995.72
2023-01-15T16:38:23.905Z,99975.28
2023-01-15T16:43:28.327Z,100000.09
2023-01-15T16:48:38.523Z,100003.19
2023-01-15T16:53:42.493Z,100016.03
2023-01-15T16:59:37.837Z,100020.28
2023-01-15T17:04:49.219Z,100032.28
2023-01-15T17:09:55.660Z,100033.94
2023-01-15T17:15:21.175Z,100036.31
2023-01-15T17:20:28.092Z,100030.69
2023-01-15T17:25:35.105Z,100031.41
2023-01-15T17:30:38.547Z,100032.81
2023-01-15T17:35:43.304Z,100041.41
2023-01-15T17:40:51.402Z,100031.13
2023-01-15T17:45:54.655Z,100045.69
2023-01-15T17:51:01.338Z,100018.25
2023-01-15T17:56:22.510Z,100024.69
2023-01-15T18:01:45.842Z,100021.59
2023-01-15T18:06:54.779Z,100024.81
2023-01-15T18:11:58.121Z,100031.50
2023-01-15T18:17:01.547Z,100024.47
2023-01-15T18:22:06.035Z,100029.53
2023-01-15T18:27:09.262Z,100033.53
2023-01-15T18:32:15.577Z,100021.19
2023-01-15T18:37:20.099Z,100027.09
2023-01-15T18:42:40.624Z,100017.28
2023-01-15T18:47:43.770Z,100018.03
2023-01-15T18:52:55.423Z,100010.84
2023-01-15T18:58:00.216Z,99998.19
2023-01-15T19:03:04.080Z,100004.13
2023-01-15T19:08:09.205Z,100006.59
2023-01-15T19:13:17.390Z,100008.97
2023-01-15T19:18:38.056Z,100000.13
2023-01-15T19:23:42.747Z,99984.16
2023-01-15T19:28:46.041Z,99975.25
2023-01-15T19:33:49.898Z,99983.50
2023-01-15T19:38:54.363Z,99986.41
2023-01-15T19:44:14.968Z,99968.56
2023-01-15T19:49:38.558Z,99981.56
2023-01-15T19:54:59.979Z,99972.66
2023-01-15T20:00:06.425Z,99968.28
2023-01-15T20:05:10.983Z,99957.50
2023-01-15T20:10:18.553Z,99922.91
2023-01-15T20:15:22.123Z,99930.06
2023-01-15T20:20:25.871Z,99907.56
2023-01-15T20:25:31.255Z,99903.44
2023-01-15T20:30:34.972Z,99900.69
2023-01-15T20:35:41.109Z,99888.13
2023-01-15T20:40:45.863Z,99877.59
2023-01-15T20:45:49.205Z,99860.09
2023-01-15T20:51:01.745Z,99854.69
2023-01-15T20:56:14.277Z,99849.28
2023-01-15T21:01:17.912Z,99849.75
2023-01-15T21:06:21.247Z,99826.31
2023-01-15T21:11:26.476Z,99828.66
2023-01-15T21:16:29.617Z,99822.94
2023-01-15T21:21:32.925Z,99822.78
2023-01-15T21:26:37.905Z,99806.97
2023-01-15T21:31:41.061Z,99800.34
2023-01-15T21:36:44.551Z,99800.50
2023-01-15T21:42:08.856Z,99772.09
2023-01-15T21:47:14.170Z,99770.03
2023-01-15T21:52:19.645Z,99751.75
2023-01-15T21:57:24.528Z,99747.25
2023-01-15T22:02:29.955Z,99748.53
2023-01-15T22:07:33.134Z,99735.53
2023-01-15T22:12:42.144Z,99726.25
2023-01-15T22:17:45.477Z,99708.25
2023-01-15T22:22:51.268Z,99714.84
2023-01-15T22:27:56.626Z,99706.97
2023-01-15T22:33:00.926Z,99701.13
2023-01-15T22:38:04.506Z,99694.41
2023-01-15T22:43:09.338Z,99686.50
2023-01-15T22:48:13.224Z,99689.97
2023-01-15T22:53:19.112Z,99685.53
2023-01-15T22:58:23.680Z,99679.31
2023-01-15T23:03:26.897Z,99676.06
2023-01-15T23:08:32.346Z,99674.22
2023-01-15T23:13:37.212Z,99678.66
2023-01-15T23:18:40.395Z,99668.63
2023-01-15T23:23:43.783Z,99661.63
2023-01-15T23:28:48.731Z,99646.13
2023-01-15T23:33:51.963Z,99652.69
2023-01-15T23:38:55.476Z,99636.59
2023-01-15T23:44:26.074Z,99643.03
2023-01-15T23:49:29.359Z,99635.34
2023-01-15T23:54:32.703Z,99633.66
2023-01-15T23:59:37.754Z,99617.84
